Huntsville, Texas
Current Conditions -  °F | °C
As of 11:14 AM on Saturday 20 Dec 2014 (Local Time) from KUTS Reporting Station
Overcast Overcast  
Wind Chill: 50°   Ceiling: 500
Heat Index: 50°   Visibility: 7mi
Dew Point: 47°   Wind: 5mph
Humidity: 89%   Direction: 360°N
Pressure: 30.23"   Gusts: NA
Location:  30.72°N, 95.55°W
Report Text: KUTS 201714Z AUTO 36004KT 7SM OVC005 10/08 A3023 RMK AO2 T01000083
Loading
Personal Weather Stations






























Interactive Weather Map New forecast layout! Learn more

10-Day Weather Forecast

Advertisements
Track Severe Weather on mobile